Time;durP1;ratioP1;P1;durP2;ratioP2;P2;SDS_P1;SDS_P2;PMS_P1;PMS_P2;Temp;Humidity;BMP_temperature;BMP_pressure;BME280_temperature;BME280_humidity;BME280_pressure;Samples;Min_cycle;Max_cycle;Signal;HPM_P1;HPM_P2
2023/09/30 00:00:47;;;;;;;15.90;12.70;;;;;;;18.67;60.46;100549.20;112238;1239;24153;-79
2023/09/30 00:03:31;;;;;;;14.70;13.10;;;;;;;18.65;60.57;100549.30;112527;1239;21943;-77
2023/09/30 00:06:01;;;;;;;16.50;12.90;;;;;;;18.67;60.82;100550.11;112918;1233;21942;-77
2023/09/30 00:08:31;;;;;;;18.30;13.60;;;;;;;18.66;60.91;100549.96;113300;1233;21932;-77
2023/09/30 00:11:00;;;;;;;22.40;13.10;;;;;;;18.66;61.18;100566.71;113016;1233;21938;-78
2023/09/30 00:13:30;;;;;;;16.80;13.00;;;;;;;18.67;61.50;100563.12;113168;1233;22477;-78
2023/09/30 00:16:02;;;;;;;16.50;13.20;;;;;;;18.68;61.70;100568.20;113206;1224;21926;-78
2023/09/30 00:18:33;;;;;;;15.50;13.80;;;;;;;18.69;61.84;100559.27;113180;1234;22055;-79
2023/09/30 00:21:11;;;;;;;14.50;12.30;;;;;;;18.70;62.12;100562.02;113281;1233;21928;-77
2023/09/30 00:23:39;;;;;;;20.30;13.10;;;;;;;18.70;62.16;100552.67;112594;1241;21952;-80
2023/09/30 00:26:09;;;;;;;16.80;13.10;;;;;;;18.66;62.38;100547.13;112608;1241;23575;-77
2023/09/30 00:28:38;;;;;;;16.90;13.30;;;;;;;18.61;62.53;100541.11;111949;1245;22715;-78
2023/09/30 00:31:10;;;;;;;19.90;13.40;;;;;;;18.54;62.97;100539.86;112150;1245;22009;-78
2023/09/30 00:33:41;;;;;;;17.90;12.60;;;;;;;18.50;63.20;100542.63;112218;1245;24506;-78
2023/09/30 00:36:11;;;;;;;18.50;13.20;;;;;;;18.47;63.23;100542.09;112150;1245;22905;-77
2023/09/30 00:38:50;;;;;;;21.00;12.80;;;;;;;18.45;63.41;100537.50;111755;1250;22023;-77
2023/09/30 00:41:20;;;;;;;20.40;13.20;;;;;;;18.42;63.55;100538.20;111712;1238;22004;-78
2023/09/30 00:43:49;;;;;;;20.20;13.00;;;;;;;18.41;63.63;100540.94;112058;1244;21958;-78
2023/09/30 00:46:36;;;;;;;15.40;13.00;;;;;;;18.38;63.89;100534.08;112221;1239;23013;-78
2023/09/30 00:49:06;;;;;;;17.40;13.60;;;;;;;18.40;64.01;100535.38;112336;1239;22362;-78
2023/09/30 00:51:38;;;;;;;17.00;13.40;;;;;;;18.40;63.96;100533.95;112430;1239;23788;-76
2023/09/30 00:54:09;;;;;;;16.10;12.30;;;;;;;18.39;64.03;100537.73;112075;1244;21969;-78
2023/09/30 00:56:48;;;;;;;16.40;13.10;;;;;;;18.33;64.22;100536.30;112113;1239;22943;-78
2023/09/30 00:59:20;;;;;;;14.30;12.30;;;;;;;18.29;64.36;100541.86;112690;1239;23681;-78
2023/09/30 01:01:57;;;;;;;18.60;13.60;;;;;;;18.28;64.47;100548.48;112557;1239;23762;-77
2023/09/30 01:04:35;;;;;;;;;;;;;;;18.27;64.51;100549.23;112231;1244;22693;-77
2023/09/30 01:07:09;;;;;;;17.60;13.20;;;;;;;18.21;64.90;100551.44;111886;1249;21978;-79
2023/09/30 01:09:43;;;;;;;15.30;12.90;;;;;;;18.24;64.90;100554.23;111586;1249;23565;-79
2023/09/30 01:12:17;;;;;;;14.80;13.30;;;;;;;18.29;65.04;100560.92;111558;1249;22963;-79
2023/09/30 01:14:59;;;;;;;15.00;12.60;;;;;;;18.31;64.84;100560.80;111523;1248;23022;-78
2023/09/30 01:17:29;;;;;;;20.30;14.10;;;;;;;18.31;64.83;100557.25;111881;1248;23803;-78
2023/09/30 01:20:01;;;;;;;16.80;13.80;;;;;;;18.29;64.88;100556.65;112128;1244;22680;-78
2023/09/30 01:22:30;;;;;;;18.10;13.70;;;;;;;18.29;65.09;100560.73;112559;1239;24332;-78
2023/09/30 01:24:59;;;;;;;21.80;13.80;;;;;;;18.27;65.13;100559.46;112344;1239;23507;-78
2023/09/30 01:27:28;;;;;;;15.40;13.80;;;;;;;18.28;65.36;100559.75;113006;1239;22713;-78
2023/09/30 01:29:58;;;;;;;14.20;12.80;;;;;;;18.30;65.39;100561.90;112064;1246;21986;-77
2023/09/30 01:32:30;;;;;;;14.70;13.40;;;;;;;18.30;65.48;100562.98;111879;1246;21984;-79
2023/09/30 01:35:09;;;;;;;15.50;13.30;;;;;;;18.30;65.67;100566.13;111874;1246;21955;-79
2023/09/30 01:37:55;;;;;;;15.80;12.20;;;;;;;18.32;65.79;100564.61;112016;1246;21959;-79
2023/09/30 01:40:42;;;;;;;16.60;13.20;;;;;;;18.34;65.79;100560.63;111849;1246;22026;-78
2023/09/30 01:43:13;;;;;;;19.10;13.00;;;;;;;18.32;65.78;100565.12;112439;1239;21948;-79
2023/09/30 01:45:45;;;;;;;17.70;14.00;;;;;;;18.30;65.78;100570.55;112650;1239;22011;-79
2023/09/30 01:48:25;;;;;;;16.40;13.70;;;;;;;18.29;65.95;100571.52;112709;1238;22104;-78
2023/09/30 01:50:57;;;;;;;18.30;13.50;;;;;;;18.28;66.12;100569.10;112910;1238;22728;-81
2023/09/30 01:53:42;;;;;;;15.40;13.50;;;;;;;18.28;66.29;100571.74;112972;1238;23776;-80
2023/09/30 01:56:15;;;;;;;15.90;13.00;;;;;;;18.31;66.42;100573.25;112460;1242;22013;-79
2023/09/30 01:59:09;;;;;;;16.90;13.40;;;;;;;18.33;66.45;100575.12;112123;1241;22426;-79
2023/09/30 02:01:55;;;;;;;15.30;13.80;;;;;;;18.30;66.44;100566.10;112133;1239;22051;-80
2023/09/30 02:04:30;;;;;;;21.00;13.80;;;;;;;18.30;66.53;100566.85;111622;1248;21973;-80
2023/09/30 02:07:08;;;;;;;14.80;13.30;;;;;;;18.32;66.74;100572.68;111953;1245;24433;-81
2023/09/30 02:10:16;;;;;;;;;;;;;;;;;;;;;
2023/09/30 02:13:02;;;;;;;17.30;13.20;;;;;;;18.32;67.08;100573.38;111897;1245;23632;-79
2023/09/30 02:15:44;;;;;;;14.40;12.90;;;;;;;18.36;67.26;100562.22;111736;1245;21990;-79
2023/09/30 02:18:37;;;;;;;14.90;13.50;;;;;;;18.41;67.50;100552.00;111879;1245;21964;-79
2023/09/30 02:21:21;;;;;;;14.40;13.00;;;;;;;18.46;67.62;100550.80;112022;1243;23034;-78
2023/09/30 02:24:02;;;;;;;26.40;12.20;;;;;;;18.48;67.93;100548.16;112296;1241;21949;-79
2023/09/30 02:26:44;;;;;;;;;;;;;;;18.50;67.99;100550.86;112659;1241;21948;-79
2023/09/30 02:29:23;;;;;;;13.80;12.50;;;;;;;18.43;68.36;100559.11;112630;1241;21944;-78
2023/09/30 02:32:07;;;;;;;15.60;12.80;;;;;;;18.44;68.48;100558.84;112681;1237;22735;-78
2023/09/30 02:34:38;;;;;;;15.60;13.90;;;;;;;18.46;68.65;100554.13;113436;1233;22029;-78
2023/09/30 02:37:11;;;;;;;13.50;12.30;;;;;;;18.38;68.92;100538.27;113347;1233;24204;-79
2023/09/30 02:39:43;;;;;;;16.20;12.90;;;;;;;18.49;69.11;100553.77;113372;1233;22413;-78
2023/09/30 02:42:18;;;;;;;16.30;14.50;;;;;;;18.49;69.39;100556.25;113329;1233;23582;-78
2023/09/30 02:45:03;;;;;;;17.20;14.60;;;;;;;18.43;69.49;100558.05;112827;1238;21935;-78
2023/09/30 02:47:50;;;;;;;16.10;13.90;;;;;;;18.47;69.81;100570.09;112604;1239;21973;-80
2023/09/30 02:50:34;;;;;;;18.00;14.20;;;;;;;18.47;70.25;100574.70;112112;1243;23639;-80
2023/09/30 02:53:37;;;;;;;18.50;14.40;;;;;;;18.47;70.58;100571.16;111962;1243;21954;-80
2023/09/30 02:56:32;;;;;;;;;;;;;;;;;;;;;
2023/09/30 02:59:18;;;;;;;16.90;13.40;;;;;;;18.45;71.05;100570.92;111530;1249;21961;-79
2023/09/30 03:02:06;;;;;;;18.20;12.70;;;;;;;18.44;71.29;100572.40;111568;1243;23987;-80
2023/09/30 03:04:55;;;;;;;20.30;13.70;;;;;;;18.47;71.53;100574.35;112007;1243;23574;-79
2023/09/30 03:07:41;;;;;;;15.60;14.10;;;;;;;18.48;71.73;100572.83;111992;1241;23031;-78
2023/09/30 03:10:23;;;;;;;15.90;14.00;;;;;;;18.48;71.81;100578.86;112301;1240;21959;-79
2023/09/30 03:13:18;;;;;;;14.60;13.30;;;;;;;18.48;72.03;100583.08;112507;1239;21972;-80
2023/09/30 03:16:07;;;;;;;16.10;14.40;;;;;;;18.47;72.20;100584.34;112899;1239;21943;-79
2023/09/30 03:18:54;;;;;;;14.50;12.90;;;;;;;18.50;72.33;100585.25;112768;1239;24402;-81
2023/09/30 03:21:54;;;;;;;;;;;;;;;;;;;;;
2023/09/30 03:24:37;;;;;;;18.80;13.70;;;;;;;18.50;72.53;100576.77;112546;1239;21942;-79
2023/09/30 03:27:20;;;;;;;13.80;12.40;;;;;;;18.53;72.57;100581.17;112720;1241;21970;-79
2023/09/30 03:29:59;;;;;;;14.30;12.90;;;;;;;18.55;72.61;100581.19;108500;1241;5120467;-80
2023/09/30 03:32:52;;;;;;;14.00;12.60;;;;;;;18.57;72.57;100575.42;112635;1242;23040;-79
2023/09/30 03:35:29;;;;;;;15.20;13.70;;;;;;;18.53;72.45;100570.45;112667;1241;21993;-81
2023/09/30 03:38:14;;;;;;;17.50;13.50;;;;;;;18.61;72.32;100583.64;113202;1236;21934;-83
2023/09/30 03:40:56;;;;;;;18.30;13.00;;;;;;;18.62;72.15;100587.09;113342;1236;21947;-82
2023/09/30 03:43:49;;;;;;;15.00;12.80;;;;;;;18.63;72.17;100594.45;113197;1236;22041;-79
2023/09/30 03:46:53;;;;;;;14.30;12.70;;;;;;;18.62;72.23;100590.95;113371;1234;23770;-81
2023/09/30 03:49:55;;;;;;;14.60;13.20;;;;;;;18.60;72.19;100594.61;113190;1238;21947;-79
2023/09/30 03:52:45;;;;;;;16.70;13.30;;;;;;;18.57;72.20;100595.70;112959;1238;23117;-80
2023/09/30 03:55:55;;;;;;;14.30;13.00;;;;;;;18.57;72.21;100597.66;112921;1238;22955;-79
2023/09/30 03:59:20;;;;;;;13.90;12.70;;;;;;;18.53;72.27;100604.26;112020;1245;21952;-80
2023/09/30 04:01:53;;;;;;;15.40;12.40;;;;;;;18.53;72.27;100608.31;112104;1245;23638;-79
2023/09/30 04:04:24;;;;;;;15.80;11.70;;;;;;;18.54;72.17;100611.59;112067;1245;23591;-79
2023/09/30 04:07:05;;;;;;;14.40;12.10;;;;;;;18.53;72.14;100609.52;111876;1247;23603;-81
2023/09/30 04:10:30;;;;;;;13.60;12.40;;;;;;;18.50;72.24;100607.08;111869;1247;21996;-79
2023/09/30 04:13:29;;;;;;;13.10;11.90;;;;;;;18.46;72.26;100610.86;112100;1247;21955;-80
2023/09/30 04:16:28;;;;;;;15.20;12.40;;;;;;;18.46;72.16;100617.41;111823;1246;21982;-79
2023/09/30 04:19:04;;;;;;;16.80;12.20;;;;;;;18.48;72.15;100620.98;111702;1246;22258;-79
2023/09/30 04:21:42;;;;;;;13.00;11.60;;;;;;;18.48;72.13;100625.20;111934;1246;23988;-81
2023/09/30 04:24:22;;;;;;;14.20;11.00;;;;;;;18.48;72.12;100626.94;111564;1249;23738;-79
2023/09/30 04:26:57;;;;;;;12.90;11.40;;;;;;;18.47;72.05;100630.55;111536;1244;21980;-80
2023/09/30 04:29:29;;;;;;;13.40;11.70;;;;;;;18.48;72.19;100637.17;111945;1238;22018;-79
2023/09/30 04:32:07;;;;;;;13.90;11.50;;;;;;;18.49;72.24;100644.34;112250;1245;22283;-79
2023/09/30 04:34:39;;;;;;;19.40;12.70;;;;;;;18.50;72.27;100646.77;112323;1239;21986;-79
2023/09/30 04:37:24;;;;;;;13.60;12.20;;;;;;;18.52;72.38;100648.21;112655;1241;21945;-78
2023/09/30 04:40:15;;;;;;;13.70;11.20;;;;;;;18.54;72.39;100654.73;111883;1246;21955;-79
2023/09/30 04:48:28;;;;;;;12.30;10.60;;;;;;;18.52;72.61;100664.73;112633;1241;21977;-80
2023/09/30 04:51:06;;;;;;;14.50;12.70;;;;;;;18.56;72.48;100673.33;112817;1240;21968;-78
2023/09/30 04:54:08;;;;;;;14.20;12.80;;;;;;;18.62;72.48;100683.15;112640;1240;23612;-78
2023/09/30 04:56:51;;;;;;;14.00;12.40;;;;;;;18.64;72.49;100686.50;112062;1246;22371;-80
2023/09/30 05:00:21;;;;;;;15.40;13.30;;;;;;;18.63;72.39;100682.73;111401;1251;21927;-78
2023/09/30 05:03:07;;;;;;;15.80;13.00;;;;;;;18.67;72.47;100684.02;111018;1254;22015;-78
2023/09/30 05:06:03;;;;;;;15.50;13.90;;;;;;;18.70;72.32;100682.23;111703;1248;22029;-79
2023/09/30 05:08:52;;;;;;;15.10;13.60;;;;;;;18.71;72.39;100688.01;111696;1248;21968;-79
2023/09/30 05:11:27;;;;;;;14.80;13.10;;;;;;;18.74;72.47;100692.56;111573;1248;22015;-78
2023/09/30 05:14:21;;;;;;;16.70;14.10;;;;;;;18.77;72.37;100700.13;111898;1243;21968;-77
2023/09/30 05:17:08;;;;;;;16.40;14.60;;;;;;;18.79;72.48;100711.62;112224;1239;21988;-81
2023/09/30 05:19:48;;;;;;;15.00;13.50;;;;;;;18.80;72.38;100718.09;112706;1238;21958;-78
2023/09/30 05:22:38;;;;;;;24.20;16.50;;;;;;;18.80;72.28;100726.39;112914;1238;22943;-78
2023/09/30 05:25:59;;;;;;;16.20;13.90;;;;;;;18.74;72.38;100730.27;112688;1232;23037;-77
2023/09/30 05:28:39;;;;;;;18.80;14.80;;;;;;;18.77;72.45;100737.53;112825;1238;23034;-77
2023/09/30 05:31:54;;;;;;;17.60;15.00;;;;;;;18.76;72.48;100744.29;112980;1238;23413;-77
2023/09/30 05:35:02;;;;;;;15.40;14.00;;;;;;;18.78;72.39;100757.90;112861;1238;21967;-78
2023/09/30 05:37:55;;;;;;;17.30;15.10;;;;;;;18.79;72.51;100758.02;113044;1238;22124;-78
2023/09/30 05:40:52;;;;;;;17.40;14.40;;;;;;;18.79;72.63;100762.60;112978;1234;22975;-78
2023/09/30 05:43:51;;;;;;;16.80;14.40;;;;;;;18.82;72.68;100757.83;113379;1233;23559;-78
2023/09/30 05:46:36;;;;;;;16.40;14.50;;;;;;;18.85;72.80;100760.80;113235;1233;22116;-79
2023/09/30 05:49:35;;;;;;;16.40;14.70;;;;;;;18.89;72.82;100760.52;113246;1233;21940;-78
2023/09/30 05:52:15;;;;;;;16.20;14.70;;;;;;;18.95;72.89;100755.21;113322;1233;22123;-77
2023/09/30 05:54:53;;;;;;;16.70;15.00;;;;;;;19.00;72.70;100753.06;113342;1224;23119;-77
2023/09/30 05:57:45;;;;;;;16.10;14.60;;;;;;;19.04;72.64;100756.70;113146;1233;22686;-77
2023/09/30 06:00:58;;;;;;;15.00;13.00;;;;;;;19.08;72.72;100761.39;113376;1234;22069;-81
2023/09/30 06:04:22;;;;;;;16.20;14.40;;;;;;;19.15;72.63;100769.26;113597;1233;23509;-78
2023/09/30 06:07:27;;;;;;;17.70;13.90;;;;;;;19.19;72.63;100769.68;113477;1233;22818;-79
2023/09/30 06:10:58;;;;;;;14.50;13.10;;;;;;;19.25;72.56;100770.50;113443;1233;21953;-80
2023/09/30 06:14:43;;;;;;;15.80;13.80;;;;;;;19.33;72.58;100769.80;113219;1238;23669;-81
2023/09/30 06:17:45;;;;;;;16.70;15.00;;;;;;;19.41;72.27;100770.29;113008;1234;22028;-81
2023/09/30 06:20:53;;;;;;;15.50;14.10;;;;;;;19.48;72.18;100772.28;112683;1238;21902;-81
2023/09/30 06:24:27;;;;;;;14.60;12.70;;;;;;;19.54;72.00;100773.83;113074;1238;22536;-82
2023/09/30 06:27:27;;;;;;;16.50;14.60;;;;;;;19.53;71.77;100770.92;112431;1236;23030;-84
2023/09/30 06:30:33;;;;;;;14.70;13.30;;;;;;;19.60;71.48;100783.13;112350;1243;21959;-81
2023/09/30 06:33:21;;;;;;;14.80;12.90;;;;;;;19.61;71.37;100785.17;112338;1243;21929;-80
2023/09/30 06:36:17;;;;;;;18.50;13.70;;;;;;;19.63;71.21;100786.45;111617;1248;23776;-80
2023/09/30 06:39:10;;;;;;;;;;;;;;;;;;;;;
2023/09/30 06:42:49;;;;;;;;;;;;;;;;;;;;;
2023/09/30 06:45:41;;;;;;;;;;;;;;;19.49;71.35;100803.44;111533;1248;22714;-79
2023/09/30 06:51:57;;;;;;;14.30;12.80;;;;;;;19.43;71.48;100819.09;111494;1249;21989;-81
2023/09/30 06:54:29;;;;;;;9.40;7.30;;;;;;;19.44;71.05;100840.67;112145;1235;21990;-81
2023/09/30 06:57:08;;;;;;;13.50;4.80;;;;;;;19.34;70.30;100847.47;112309;1243;21969;-80
2023/09/30 06:59:54;;;;;;;7.00;3.70;;;;;;;19.15;69.74;100846.98;112434;1238;21947;-80
2023/09/30 07:02:35;;;;;;;11.20;4.10;;;;;;;19.00;69.66;100853.27;112953;1238;21949;-79
2023/09/30 07:05:22;;;;;;;7.30;3.20;;;;;;;18.91;69.48;100859.52;112560;1238;21966;-80
2023/09/30 07:08:01;;;;;;;7.60;3.00;;;;;;;18.82;69.18;100863.76;112704;1238;21966;-76
2023/09/30 07:11:24;;;;;;;7.60;3.30;;;;;;;18.75;69.10;100871.44;112856;1234;23692;-78
2023/09/30 07:14:23;;;;;;;8.00;3.30;;;;;;;18.67;69.04;100882.48;113464;1233;21939;-77
2023/09/30 07:17:29;;;;;;;7.30;3.00;;;;;;;18.69;69.05;100889.41;112733;1239;21944;-78
2023/09/30 07:23:37;;;;;;;4.70;2.60;;;;;;;18.61;67.63;100889.43;112805;1237;21983;-78
2023/09/30 07:26:25;;;;;;;8.50;3.20;;;;;;;18.58;67.17;100894.91;112971;1238;22949;-78
2023/09/30 07:29:19;;;;;;;6.50;2.60;;;;;;;18.55;66.70;100890.70;112360;1242;21961;-78
2023/09/30 07:32:07;;;;;;;7.20;3.00;;;;;;;18.50;66.56;100892.60;112085;1242;21972;-77
2023/09/30 07:35:01;;;;;;;8.50;4.00;;;;;;;18.49;66.47;100896.52;112414;1238;23576;-78
2023/09/30 07:37:55;;;;;;;;;;;;;;;;;;;;;
2023/09/30 07:41:10;;;;;;;;;;;;;;;;;;;;;
2023/09/30 07:44:19;;;;;;;;;;;;;;;;;;;;;
2023/09/30 07:47:34;;;;;;;9.40;4.20;;;;;;;18.35;65.44;100905.83;112327;1239;22006;-78
2023/09/30 07:50:32;;;;;;;7.70;2.70;;;;;;;18.47;65.38;100919.39;112656;1239;21946;-81
2023/09/30 07:53:43;;;;;;;7.30;3.10;;;;;;;18.60;66.00;100922.81;112697;1239;23275;-78
2023/09/30 07:57:13;;;;;;;11.40;3.00;;;;;;;18.94;65.70;100929.48;112067;1246;21969;-78
2023/09/30 08:00:03;;;;;;;6.90;2.70;;;;;;;19.15;64.74;100935.23;111962;1245;22796;-78
2023/09/30 08:03:36;;;;;;;6.20;2.90;;;;;;;19.18;63.35;100940.52;111985;1245;22046;-78
2023/09/30 08:07:39;;;;;;;;;;;;;;;;;;;;;
2023/09/30 08:10:43;;;;;;;7.80;2.90;;;;;;;18.96;63.05;100961.64;112114;1245;23693;-79
2023/09/30 08:13:32;;;;;;;7.60;3.00;;;;;;;18.90;63.03;100965.71;112040;1245;21957;-79
2023/09/30 08:16:55;;;;;;;9.60;2.90;;;;;;;18.87;63.22;100967.16;112345;1233;21967;-78
2023/09/30 08:19:52;;;;;;;6.50;3.10;;;;;;;19.03;63.77;100963.16;112467;1242;23645;-79
2023/09/30 08:23:06;;;;;;;7.00;3.40;;;;;;;19.18;63.33;100972.42;112634;1242;23082;-78
2023/09/30 08:26:24;;;;;;;9.50;3.30;;;;;;;19.18;62.46;100978.44;112571;1242;21944;-77
2023/09/30 08:29:13;;;;;;;9.00;3.40;;;;;;;19.14;62.08;100985.91;111871;1247;21936;-80
2023/09/30 08:32:38;;;;;;;;;;;;;;;;;;;;;
2023/09/30 08:36:11;;;;;;;;;;;;;;;;;;;;;
2023/09/30 08:39:12;;;;;;;9.70;4.00;;;;;;;18.62;62.59;101010.46;111725;1250;22882;-79
2023/09/30 08:41:52;;;;;;;9.10;4.00;;;;;;;18.57;62.88;101015.69;111533;1251;21972;-78
2023/09/30 08:45:13;;;;;;;11.70;4.20;;;;;;;18.48;62.98;101025.20;111355;1251;23024;-79
2023/09/30 08:48:05;;;;;;;10.20;4.10;;;;;;;18.35;63.00;101023.73;111778;1245;21995;-78
2023/09/30 08:51:07;;;;;;;11.90;3.80;;;;;;;18.19;62.84;101023.07;112481;1241;23562;-79
2023/09/30 08:54:00;;;;;;;12.20;4.40;;;;;;;18.14;63.32;101031.83;112898;1238;23749;-79
2023/09/30 08:57:04;;;;;;;14.50;4.70;;;;;;;18.12;63.85;101030.51;112363;1241;21962;-78
2023/09/30 09:00:37;;;;;;;11.40;4.30;;;;;;;18.31;65.13;101031.34;112609;1241;21958;-80
2023/09/30 09:03:35;;;;;;;11.10;4.50;;;;;;;19.03;66.42;101040.06;111836;1247;21956;-79
2023/09/30 09:06:44;;;;;;;9.80;4.70;;;;;;;19.64;63.99;101042.73;111656;1248;21957;-79
2023/09/30 09:10:31;;;;;;;;;;;;;;;19.92;61.54;101036.86;111800;1248;22040;-78
2023/09/30 09:14:00;;;;;;;;;;;;;;;;;;;;;
2023/09/30 09:17:08;;;;;;;;;;;;;;;;;;;;;
2023/09/30 09:20:34;;;;;;;13.00;4.90;;;;;;;20.39;58.08;101049.60;111076;1254;21978;-79
2023/09/30 09:23:49;;;;;;;12.00;4.60;;;;;;;20.35;56.95;101051.84;111169;1254;22421;-80
2023/09/30 09:26:38;;;;;;;12.60;4.30;;;;;;;20.31;56.91;101054.21;111119;1254;22023;-78
2023/09/30 09:29:45;;;;;;;15.10;4.90;;;;;;;20.53;57.44;101055.91;111214;1254;23635;-78
2023/09/30 09:32:41;;;;;;;11.60;4.90;;;;;;;20.81;56.32;101056.60;110915;1259;21995;-79
2023/09/30 09:35:50;;;;;;;10.40;4.70;;;;;;;20.91;55.37;101065.34;111403;1253;21998;-78
2023/09/30 09:39:24;;;;;;;;;;;;;;;;;;;;;
2023/09/30 09:42:56;;;;;;;9.70;4.60;;;;;;;20.97;54.82;101065.77;111732;1247;21963;-78
2023/09/30 09:45:50;;;;;;;7.60;3.70;;;;;;;21.14;54.48;101063.89;111782;1247;22911;-78
2023/09/30 09:48:49;;;;;;;;;;;;;;;;;;;;;
2023/09/30 09:51:55;;;;;;;9.60;3.90;;;;;;;21.57;52.84;101077.33;113426;1233;21919;-79
2023/09/30 09:54:41;;;;;;;11.50;4.70;;;;;;;21.62;51.54;101079.43;113679;1233;23763;-78
2023/09/30 09:57:39;;;;;;;9.90;3.90;;;;;;;21.59;51.03;101091.02;113283;1233;21952;-76
2023/09/30 10:00:31;;;;;;;11.80;4.00;;;;;;;21.50;50.57;101089.55;113582;1233;22991;-79
2023/09/30 10:03:22;;;;;;;17.70;4.30;;;;;;;21.59;50.74;101086.91;113402;1233;23601;-79
2023/09/30 10:06:39;;;;;;;10.90;6.40;;;;;;;21.87;50.20;101085.20;113472;1233;21944;-80
2023/09/30 10:09:14;;;;;;;9.30;4.20;;;;;;;22.23;49.27;101086.86;112408;1241;21945;-77
2023/09/30 10:12:08;;;;;;;12.10;3.60;;;;;;;22.50;47.38;101080.73;112270;1241;21947;-77
2023/09/30 10:14:49;;;;;;;12.60;4.30;;;;;;;22.66;45.99;101081.25;112609;1241;23805;-78
2023/09/30 10:17:51;;;;;;;13.60;4.80;;;;;;;22.82;45.39;101078.80;112399;1241;21958;-77
2023/09/30 10:21:15;;;;;;;10.30;3.80;;;;;;;22.87;44.85;101083.72;112702;1241;23695;-77
2023/09/30 10:24:27;;;;;;;12.20;4.20;;;;;;;22.98;44.60;101080.52;112563;1241;21926;-76
2023/09/30 10:27:55;;;;;;;9.60;4.10;;;;;;;22.94;43.50;101087.64;111894;1246;22063;-76
2023/09/30 10:30:40;;;;;;;12.80;4.30;;;;;;;22.77;43.63;101085.59;111682;1247;23690;-77
2023/09/30 10:33:26;;;;;;;14.30;4.80;;;;;;;22.83;44.04;101087.95;111790;1247;22036;-77
2023/09/30 10:36:39;;;;;;;15.50;4.70;;;;;;;23.09;43.96;101085.23;111038;1253;23588;-77
2023/09/30 10:39:14;;;;;;;10.00;4.40;;;;;;;23.34;43.08;101080.02;111223;1253;22016;-76
2023/09/30 10:42:02;;;;;;;11.70;4.40;;;;;;;23.46;42.36;101081.04;111114;1253;23050;-76
2023/09/30 10:44:54;;;;;;;12.50;4.30;;;;;;;23.54;41.89;101088.77;111284;1248;21941;-77
2023/09/30 10:47:41;;;;;;;11.20;3.60;;;;;;;23.48;41.11;101083.89;112236;1241;21996;-79
2023/09/30 10:51:10;;;;;;;8.10;4.00;;;;;;;23.43;41.29;101077.92;112288;1241;24366;-77
2023/09/30 10:53:59;;;;;;;15.60;4.70;;;;;;;23.58;41.34;101083.64;112743;1233;21959;-78
2023/09/30 10:57:48;;;;;;;;;;;;;;;;;;;;;
2023/09/30 11:01:25;;;;;;;14.80;4.70;;;;;;;22.99;40.14;101089.91;112674;1239;24359;-79
2023/09/30 11:05:03;;;;;;;16.50;5.20;;;;;;;22.46;41.20;101092.39;111223;1253;23587;-78
2023/09/30 11:08:19;;;;;;;15.90;5.80;;;;;;;22.09;41.73;101093.17;111224;1253;23608;-78
2023/09/30 11:11:00;;;;;;;12.70;4.90;;;;;;;21.88;42.17;101093.10;111196;1253;22021;-78
2023/09/30 11:17:04;;;;;;;15.10;5.20;;;;;;;21.57;42.71;101099.49;111361;1251;21984;-77
2023/09/30 11:20:15;;;;;;;11.90;4.60;;;;;;;21.33;42.72;101090.71;111271;1251;23704;-78
2023/09/30 11:23:27;;;;;;;10.40;4.30;;;;;;;21.08;42.98;101088.22;111568;1249;21995;-77
2023/09/30 11:26:37;;;;;;;13.70;4.60;;;;;;;20.90;43.48;101088.40;111369;1249;22858;-78
2023/09/30 11:30:08;;;;;;;16.60;5.70;;;;;;;20.76;43.76;101091.70;111814;1245;22117;-77
2023/09/30 11:32:53;;;;;;;9.90;5.00;;;;;;;20.56;44.03;101081.30;111893;1245;22447;-78
2023/09/30 11:40:20;;;;;;;15.00;6.10;;;;;;;20.30;44.17;101094.41;111818;1248;21963;-77
2023/09/30 11:43:14;;;;;;;18.90;5.90;;;;;;;20.20;44.42;101096.29;112570;1233;23077;-76
2023/09/30 11:46:21;;;;;;;;;;;;;;;;;;;;;
2023/09/30 11:49:08;;;;;;;15.30;6.00;;;;;;;20.14;44.96;101093.69;111307;1251;21979;-76
2023/09/30 11:52:15;;;;;;;10.60;5.20;;;;;;;20.16;45.03;101090.06;111522;1250;22007;-77
2023/09/30 11:55:00;;;;;;;9.80;5.20;;;;;;;20.24;44.61;101104.67;110973;1255;21966;-78
2023/09/30 11:57:50;;;;;;;14.70;5.20;;;;;;;20.28;44.34;101097.73;110523;1261;21978;-76
2023/09/30 12:00:50;;;;;;;10.50;5.20;;;;;;;20.28;44.21;101095.04;110565;1261;23730;-77
2023/09/30 12:03:39;;;;;;;12.50;5.60;;;;;;;20.37;44.24;101102.92;110459;1258;22019;-76
2023/09/30 12:06:13;;;;;;;11.80;5.50;;;;;;;20.43;43.92;101095.31;110744;1258;23052;-76
2023/09/30 12:09:11;;;;;;;13.50;5.30;;;;;;;20.44;43.75;101092.73;110504;1261;21953;-78
2023/09/30 12:11:46;;;;;;;11.50;5.30;;;;;;;20.47;43.73;101093.81;109970;1266;21982;-77
2023/09/30 12:14:31;;;;;;;9.10;4.60;;;;;;;20.45;43.54;101082.80;110646;1259;23746;-77
2023/09/30 12:17:14;;;;;;;12.40;5.50;;;;;;;20.56;43.80;101085.60;111124;1255;23622;-76
2023/09/30 12:19:50;;;;;;;9.70;4.90;;;;;;;20.60;43.63;101091.14;110729;1257;23148;-76
2023/09/30 12:22:26;;;;;;;12.60;5.20;;;;;;;20.62;43.51;101094.36;111061;1254;23632;-77
2023/09/30 12:25:00;;;;;;;10.10;4.40;;;;;;;20.61;43.55;101099.95;111545;1250;22819;-77
2023/09/30 12:27:46;;;;;;;9.90;4.50;;;;;;;20.49;43.38;101092.45;111669;1249;23168;-77
2023/09/30 12:30:39;;;;;;;13.60;5.10;;;;;;;20.48;43.51;101100.66;111867;1249;22007;-77
2023/09/30 12:33:27;;;;;;;14.10;9.50;;;;;;;20.45;43.66;101102.03;111824;1245;22371;-77
2023/09/30 12:36:13;;;;;;;13.60;5.50;;;;;;;20.47;43.74;101102.29;111923;1239;22017;-77
2023/09/30 12:39:10;;;;;;;9.90;5.00;;;;;;;20.48;43.79;101101.71;112703;1239;21980;-76
2023/09/30 12:41:50;;;;;;;11.30;4.80;;;;;;;20.46;43.90;101101.80;112854;1231;21996;-77
2023/09/30 12:44:43;;;;;;;9.50;4.40;;;;;;;20.44;43.73;101108.45;112981;1239;22989;-76
2023/09/30 12:47:23;;;;;;;16.80;5.00;;;;;;;20.41;43.52;101113.45;112748;1239;22571;-77
2023/09/30 12:49:57;;;;;;;9.50;5.70;;;;;;;20.40;43.45;101112.48;112764;1239;23138;-77
2023/09/30 12:52:43;;;;;;;10.50;5.40;;;;;;;20.38;43.24;101112.05;112896;1239;21971;-77
2023/09/30 12:55:26;;;;;;;15.60;7.10;;;;;;;20.30;43.05;101111.91;112863;1239;23577;-76
2023/09/30 12:58:22;;;;;;;16.40;4.90;;;;;;;20.26;43.25;101111.30;113304;1234;21958;-77
2023/09/30 13:01:08;;;;;;;10.10;4.60;;;;;;;20.18;43.33;101102.79;112652;1239;23690;-77
2023/09/30 13:03:54;;;;;;;11.00;4.50;;;;;;;20.14;43.22;101114.37;113041;1238;21939;-77
2023/09/30 13:06:46;;;;;;;14.80;5.40;;;;;;;20.07;43.20;101118.73;112762;1238;21940;-76
2023/09/30 13:09:31;;;;;;;10.30;4.40;;;;;;;20.02;43.29;101120.98;113180;1238;22396;-79
2023/09/30 13:12:14;;;;;;;10.00;4.30;;;;;;;19.99;43.25;101121.69;112500;1238;22991;-77
2023/09/30 13:14:54;;;;;;;10.80;4.70;;;;;;;20.02;43.21;101123.98;112547;1238;23570;-78
2023/09/30 13:17:38;;;;;;;6.20;3.20;;;;;;;19.93;42.83;101115.94;112928;1238;23674;-77
2023/09/30 13:20:21;;;;;;;14.10;4.10;;;;;;;19.85;42.89;101114.30;113310;1233;23599;-77
2023/09/30 13:23:00;;;;;;;10.50;4.30;;;;;;;19.86;43.02;101124.36;113470;1233;24881;-76
2023/09/30 13:25:51;;;;;;;12.80;6.60;;;;;;;19.81;43.25;101116.36;113397;1228;23085;-76
2023/09/30 13:28:48;;;;;;;11.20;4.60;;;;;;;19.79;43.26;101117.50;112439;1239;22079;-76
2023/09/30 13:31:37;;;;;;;19.60;5.00;;;;;;;19.80;43.36;101123.31;112290;1245;22950;-79
2023/09/30 13:34:38;;;;;;;7.30;3.70;;;;;;;19.80;43.65;101127.38;111898;1249;21983;-80
2023/09/30 13:37:36;;;;;;;8.90;4.20;;;;;;;19.79;43.85;101125.79;111648;1245;21962;-79
2023/09/30 13:40:20;;;;;;;25.60;5.00;;;;;;;19.80;43.94;101126.13;111647;1252;21997;-81
2023/09/30 13:43:34;;;;;;;10.10;4.10;;;;;;;19.81;44.12;101118.99;111922;1252;22471;-82
2023/09/30 13:46:30;;;;;;;6.90;3.40;;;;;;;19.85;44.06;101119.83;112055;1247;21963;-80